Aviosuperficie Chiasiellis

IT-0405 · Friuli Venezia Giulia, 意大利

SPECI IT-0405 · Aviosuperficie Chiasiellis

罗盘
风向 的 风向 010° Aviosuperficie Chiasiellis 16/34
风: 5 kt, 2 beaufort

4 kt

3 kt
改变
0 2.000 4.000 6.000 8.000 10.000
FEW 3.500 ft
SCT 6.000 ft
BKN 8.000 ft
SPECI LIPI 030055Z 01005KT 9999 FEW035 SCT060 BKN080 05/04 Q1019 RMK OVC VIS MIN 9999 WIND THR06 04006KT WIND THR24 02006KT BLU

METAR Aviosuperficie Chiasiellis - IT-0405

Aviosuperficie Chiasiellis是,意大利中的小机场。 该机场有一条跑道: 16/34. 该领域的国际民航组织标志是IT-0405.

这份报告是针对2022年12月3日 01:55, 当地时间在Rivolto Air Base进行的。

机场观察

风向为010°,速度为5 kt。

可见度为10 km 或者更多。

有几云在3.500 ft的高度, 疏云,零星散落的云朵在6.000 ft的高度 和 碎云在8.000 ft的高度。 破损或更高的上限为8.000 ft。

温度为5 °C,阵风为1 °C。 露点为4 °C,相对湿度为93%。 海平面上的气压为1019 hPa (QNH)。

白天

今天,太阳从07:30升起,在16:23降落。 这适用于Aviosuperficie Chiasiellis,世界夏令时可能有所不同。 当地时间与世界标准时间之间的时差为+1 小时。 当前,没有夏令时有效。

公司介绍

我们没有关于这个机场的公司信息。

体会

到Vliegles.nl去找飞行课程,跳伞和其他飞行体验。 浏览页面,了解Aviosuperficie Chiasiellis附近所有可用的活动。 你也可以使用搜索功能来寻找你所在地附近的特定飞行课程、跳伞或其他飞行体验。

跑道

Id 标题 侧风 逆风 侧风 %
16/34 160°-340° 3 kt 4 kt 50 %

逆风成分最大的方向会被突出显示,并用于横风计算。 这并不一定意味着这个方向在使用。

乌云

3.500 ft FEW 几云
6.000 ft SCT 疏云,零星散落的云朵
8.000 ft BKN 碎云

温度 & 天气

温度 5 °C
露点 4 °C
相对湿度 93%
风寒 1 °C
Kp-index 0 (0-9)

评论

OVC VIS MIN 9999 WIND THR06 04006KT WIND THR24 02006KT

白天

日出
07:31 (4:52)
中午
11:57
日落
16:23

小工具

你想在你的网站上有一个关于Aviosuperficie Chiasiellis的当前航空天气(METAR)的小部件吗?

显示HTML代码

我们和第三方通过cookies跟踪您在我们网站上的互联网行为。如果你继续,我们认为你同意我们的饼干政策